sensor_id;sensor_type;location;lat;lon;timestamp;P1;P2;P0
32503;PMS5003;18953;45.930;13.640;2024-02-28T00:05:15;10;9;
32503;PMS5003;18953;45.930;13.640;2024-02-28T00:10:31;10;8;
32503;PMS5003;18953;45.930;13.640;2024-02-28T00:15:48;6;6;
32503;PMS5003;18953;45.930;13.640;2024-02-28T00:21:04;7;5;
32503;PMS5003;18953;45.930;13.640;2024-02-28T00:26:20;8;7;
32503;PMS5003;18953;45.930;13.640;2024-02-28T00:31:36;4;4;
32503;PMS5003;18953;45.930;13.640;2024-02-28T00:36:53;5;5;
32503;PMS5003;18953;45.930;13.640;2024-02-28T00:42:09;5;4;
32503;PMS5003;18953;45.930;13.640;2024-02-28T00:47:25;5;4;
32503;PMS5003;18953;45.930;13.640;2024-02-28T00:52:42;4;4;
32503;PMS5003;18953;45.930;13.640;2024-02-28T00:57:58;8;8;
32503;PMS5003;18953;45.930;13.640;2024-02-28T01:03:14;6;5;
32503;PMS5003;18953;45.930;13.640;2024-02-28T01:08:31;6;5;
32503;PMS5003;18953;45.930;13.640;2024-02-28T01:13:47;4;4;
32503;PMS5003;18953;45.930;13.640;2024-02-28T01:19:03;5;4;
32503;PMS5003;18953;45.930;13.640;2024-02-28T01:24:20;4;4;
32503;PMS5003;18953;45.930;13.640;2024-02-28T01:29:36;4;4;
32503;PMS5003;18953;45.930;13.640;2024-02-28T01:34:52;4;4;
32503;PMS5003;18953;45.930;13.640;2024-02-28T01:40:09;4;4;
32503;PMS5003;18953;45.930;13.640;2024-02-28T01:45:25;4;4;
32503;PMS5003;18953;45.930;13.640;2024-02-28T01:50:41;5;4;
32503;PMS5003;18953;45.930;13.640;2024-02-28T01:55:57;4;4;
32503;PMS5003;18953;45.930;13.640;2024-02-28T02:01:14;8;7;
32503;PMS5003;18953;45.930;13.640;2024-02-28T02:06:30;5;5;
32503;PMS5003;18953;45.930;13.640;2024-02-28T02:11:46;9;7;
32503;PMS5003;18953;45.930;13.640;2024-02-28T02:17:03;4;4;
32503;PMS5003;18953;45.930;13.640;2024-02-28T02:22:19;5;4;
32503;PMS5003;18953;45.930;13.640;2024-02-28T02:27:35;9;7;
32503;PMS5003;18953;45.930;13.640;2024-02-28T02:32:52;8;8;
32503;PMS5003;18953;45.930;13.640;2024-02-28T02:38:08;6;4;
32503;PMS5003;18953;45.930;13.640;2024-02-28T02:43:24;5;5;
32503;PMS5003;18953;45.930;13.640;2024-02-28T02:48:41;7;5;
32503;PMS5003;18953;45.930;13.640;2024-02-28T02:53:57;5;4;
32503;PMS5003;18953;45.930;13.640;2024-02-28T02:59:13;4;4;
32503;PMS5003;18953;45.930;13.640;2024-02-28T03:04:30;6;6;
32503;PMS5003;18953;45.930;13.640;2024-02-28T03:09:46;8;4;
32503;PMS5003;18953;45.930;13.640;2024-02-28T03:15:02;5;5;
32503;PMS5003;18953;45.930;13.640;2024-02-28T03:20:18;5;5;
32503;PMS5003;18953;45.930;13.640;2024-02-28T03:25:35;8;6;
32503;PMS5003;18953;45.930;13.640;2024-02-28T03:30:51;12;11;
32503;PMS5003;18953;45.930;13.640;2024-02-28T03:36:07;11;10;
32503;PMS5003;18953;45.930;13.640;2024-02-28T03:41:24;7;7;
32503;PMS5003;18953;45.930;13.640;2024-02-28T03:46:40;8;6;
32503;PMS5003;18953;45.930;13.640;2024-02-28T03:51:56;10;6;
32503;PMS5003;18953;45.930;13.640;2024-02-28T03:57:13;9;8;
32503;PMS5003;18953;45.930;13.640;2024-02-28T04:02:29;9;8;
32503;PMS5003;18953;45.930;13.640;2024-02-28T04:07:45;8;8;
32503;PMS5003;18953;45.930;13.640;2024-02-28T04:13:02;9;8;
32503;PMS5003;18953;45.930;13.640;2024-02-28T04:18:18;9;8;
32503;PMS5003;18953;45.930;13.640;2024-02-28T04:23:34;7;7;
32503;PMS5003;18953;45.930;13.640;2024-02-28T04:28:50;5;5;
32503;PMS5003;18953;45.930;13.640;2024-02-28T04:34:07;6;6;
32503;PMS5003;18953;45.930;13.640;2024-02-28T04:39:23;10;5;
32503;PMS5003;18953;45.930;13.640;2024-02-28T04:44:39;12;11;
32503;PMS5003;18953;45.930;13.640;2024-02-28T04:49:56;12;11;
32503;PMS5003;18953;45.930;13.640;2024-02-28T04:55:12;8;8;
32503;PMS5003;18953;45.930;13.640;2024-02-28T05:00:28;11;10;
32503;PMS5003;18953;45.930;13.640;2024-02-28T05:05:45;10;10;
32503;PMS5003;18953;45.930;13.640;2024-02-28T05:11:01;11;11;
32503;PMS5003;18953;45.930;13.640;2024-02-28T05:16:17;17;15;
32503;PMS5003;18953;45.930;13.640;2024-02-28T05:21:39;11;11;
32503;PMS5003;18953;45.930;13.640;2024-02-28T05:26:50;14;12;
32503;PMS5003;18953;45.930;13.640;2024-02-28T05:32:06;17;15;
32503;PMS5003;18953;45.930;13.640;2024-02-28T05:37:23;14;13;
32503;PMS5003;18953;45.930;13.640;2024-02-28T05:42:39;14;12;
32503;PMS5003;18953;45.930;13.640;2024-02-28T05:47:55;21;19;
32503;PMS5003;18953;45.930;13.640;2024-02-28T05:53:12;13;12;
32503;PMS5003;18953;45.930;13.640;2024-02-28T05:58:28;17;15;
32503;PMS5003;18953;45.930;13.640;2024-02-28T06:03:45;30;27;
32503;PMS5003;18953;45.930;13.640;2024-02-28T06:09:01;17;15;
32503;PMS5003;18953;45.930;13.640;2024-02-28T06:14:17;18;18;
32503;PMS5003;18953;45.930;13.640;2024-02-28T06:19:33;23;21;
32503;PMS5003;18953;45.930;13.640;2024-02-28T06:24:49;27;27;
32503;PMS5003;18953;45.930;13.640;2024-02-28T06:30:06;27;23;
32503;PMS5003;18953;45.930;13.640;2024-02-28T06:35:22;23;21;
32503;PMS5003;18953;45.930;13.640;2024-02-28T06:40:38;16;15;
32503;PMS5003;18953;45.930;13.640;2024-02-28T06:45:54;19;17;
32503;PMS5003;18953;45.930;13.640;2024-02-28T06:51:12;69;54;
32503;PMS5003;18953;45.930;13.640;2024-02-28T06:56:29;76;59;
32503;PMS5003;18953;45.930;13.640;2024-02-28T07:01:45;44;37;
32503;PMS5003;18953;45.930;13.640;2024-02-28T07:07:02;45;37;
32503;PMS5003;18953;45.930;13.640;2024-02-28T07:12:18;31;24;
32503;PMS5003;18953;45.930;13.640;2024-02-28T07:17:34;27;25;
32503;PMS5003;18953;45.930;13.640;2024-02-28T07:22:51;17;16;
32503;PMS5003;18953;45.930;13.640;2024-02-28T07:28:07;53;41;
32503;PMS5003;18953;45.930;13.640;2024-02-28T07:33:23;34;32;
32503;PMS5003;18953;45.930;13.640;2024-02-28T07:38:41;26;23;
32503;PMS5003;18953;45.930;13.640;2024-02-28T07:43:56;14;12;
32503;PMS5003;18953;45.930;13.640;2024-02-28T07:49:13;20;19;
32503;PMS5003;18953;45.930;13.640;2024-02-28T07:54:29;14;14;
32503;PMS5003;18953;45.930;13.640;2024-02-28T07:59:45;13;13;
32503;PMS5003;18953;45.930;13.640;2024-02-28T08:05:01;31;28;
32503;PMS5003;18953;45.930;13.640;2024-02-28T08:10:18;13;13;
32503;PMS5003;18953;45.930;13.640;2024-02-28T08:15:34;17;15;
32503;PMS5003;18953;45.930;13.640;2024-02-28T08:20:50;18;17;
32503;PMS5003;18953;45.930;13.640;2024-02-28T08:26:07;13;12;
32503;PMS5003;18953;45.930;13.640;2024-02-28T08:31:23;16;16;
32503;PMS5003;18953;45.930;13.640;2024-02-28T08:36:39;17;17;
32503;PMS5003;18953;45.930;13.640;2024-02-28T08:41:56;49;40;
32503;PMS5003;18953;45.930;13.640;2024-02-28T08:47:12;45;39;
32503;PMS5003;18953;45.930;13.640;2024-02-28T08:52:29;42;35;
32503;PMS5003;18953;45.930;13.640;2024-02-28T08:57:45;42;36;
32503;PMS5003;18953;45.930;13.640;2024-02-28T09:03:01;40;32;
32503;PMS5003;18953;45.930;13.640;2024-02-28T09:08:18;30;28;
32503;PMS5003;18953;45.930;13.640;2024-02-28T09:13:34;20;17;
32503;PMS5003;18953;45.930;13.640;2024-02-28T09:18:50;17;16;
32503;PMS5003;18953;45.930;13.640;2024-02-28T09:24:07;14;12;
32503;PMS5003;18953;45.930;13.640;2024-02-28T09:29:23;19;16;
32503;PMS5003;18953;45.930;13.640;2024-02-28T09:34:39;12;12;
32503;PMS5003;18953;45.930;13.640;2024-02-28T09:39:56;14;13;
32503;PMS5003;18953;45.930;13.640;2024-02-28T09:45:12;18;14;
32503;PMS5003;18953;45.930;13.640;2024-02-28T09:50:28;16;15;
32503;PMS5003;18953;45.930;13.640;2024-02-28T09:55:44;16;15;
32503;PMS5003;18953;45.930;13.640;2024-02-28T10:01:01;17;16;
32503;PMS5003;18953;45.930;13.640;2024-02-28T10:06:17;14;14;
32503;PMS5003;18953;45.930;13.640;2024-02-28T10:11:33;14;13;
32503;PMS5003;18953;45.930;13.640;2024-02-28T10:16:50;12;12;
32503;PMS5003;18953;45.930;13.640;2024-02-28T10:22:06;8;8;
32503;PMS5003;18953;45.930;13.640;2024-02-28T10:27:23;13;12;
32503;PMS5003;18953;45.930;13.640;2024-02-28T10:32:47;14;11;
32503;PMS5003;18953;45.930;13.640;2024-02-28T10:37:55;12;11;
32503;PMS5003;18953;45.930;13.640;2024-02-28T10:43:11;11;10;
32503;PMS5003;18953;45.930;13.640;2024-02-28T10:48:28;12;12;
32503;PMS5003;18953;45.930;13.640;2024-02-28T10:53:44;12;11;
32503;PMS5003;18953;45.930;13.640;2024-02-28T10:59:00;12;11;
32503;PMS5003;18953;45.930;13.640;2024-02-28T11:04:16;12;11;
32503;PMS5003;18953;45.930;13.640;2024-02-28T11:09:33;10;8;
32503;PMS5003;18953;45.930;13.640;2024-02-28T11:14:55;12;11;
32503;PMS5003;18953;45.930;13.640;2024-02-28T11:20:12;12;9;
32503;PMS5003;18953;45.930;13.640;2024-02-28T11:25:22;7;7;
32503;PMS5003;18953;45.930;13.640;2024-02-28T11:30:38;9;8;
32503;PMS5003;18953;45.930;13.640;2024-02-28T11:35:55;7;6;
32503;PMS5003;18953;45.930;13.640;2024-02-28T11:41:10;7;6;
32503;PMS5003;18953;45.930;13.640;2024-02-28T11:46:27;7;7;
32503;PMS5003;18953;45.930;13.640;2024-02-28T11:51:43;9;9;
32503;PMS5003;18953;45.930;13.640;2024-02-28T11:56:59;6;5;
32503;PMS5003;18953;45.930;13.640;2024-02-28T12:02:15;6;4;
32503;PMS5003;18953;45.930;13.640;2024-02-28T12:07:32;8;7;
32503;PMS5003;18953;45.930;13.640;2024-02-28T12:12:48;8;7;
32503;PMS5003;18953;45.930;13.640;2024-02-28T12:18:07;6;6;
32503;PMS5003;18953;45.930;13.640;2024-02-28T12:23:21;9;8;
32503;PMS5003;18953;45.930;13.640;2024-02-28T12:28:37;7;6;
32503;PMS5003;18953;45.930;13.640;2024-02-28T12:33:53;13;12;
32503;PMS5003;18953;45.930;13.640;2024-02-28T12:39:10;10;9;
32503;PMS5003;18953;45.930;13.640;2024-02-28T12:44:26;9;9;
32503;PMS5003;18953;45.930;13.640;2024-02-28T12:49:42;17;15;
32503;PMS5003;18953;45.930;13.640;2024-02-28T12:54:58;15;13;
32503;PMS5003;18953;45.930;13.640;2024-02-28T13:00:15;17;14;
32503;PMS5003;18953;45.930;13.640;2024-02-28T13:05:31;11;10;
32503;PMS5003;18953;45.930;13.640;2024-02-28T13:10:47;14;13;
32503;PMS5003;18953;45.930;13.640;2024-02-28T13:16:04;15;14;
32503;PMS5003;18953;45.930;13.640;2024-02-28T13:21:20;12;10;
32503;PMS5003;18953;45.930;13.640;2024-02-28T13:26:36;8;8;
32503;PMS5003;18953;45.930;13.640;2024-02-28T13:31:53;14;11;
32503;PMS5003;18953;45.930;13.640;2024-02-28T13:37:09;13;13;
32503;PMS5003;18953;45.930;13.640;2024-02-28T13:42:25;7;7;
32503;PMS5003;18953;45.930;13.640;2024-02-28T13:47:42;14;13;
32503;PMS5003;18953;45.930;13.640;2024-02-28T13:52:58;13;11;
32503;PMS5003;18953;45.930;13.640;2024-02-28T13:58:15;8;8;
32503;PMS5003;18953;45.930;13.640;2024-02-28T14:03:31;17;16;
32503;PMS5003;18953;45.930;13.640;2024-02-28T14:08:47;7;7;
32503;PMS5003;18953;45.930;13.640;2024-02-28T14:14:03;7;5;
32503;PMS5003;18953;45.930;13.640;2024-02-28T14:19:20;7;5;
32503;PMS5003;18953;45.930;13.640;2024-02-28T14:24:36;5;5;
32503;PMS5003;18953;45.930;13.640;2024-02-28T14:29:52;10;7;
32503;PMS5003;18953;45.930;13.640;2024-02-28T14:35:09;22;21;
32503;PMS5003;18953;45.930;13.640;2024-02-28T14:40:25;8;6;
32503;PMS5003;18953;45.930;13.640;2024-02-28T14:45:41;7;7;
32503;PMS5003;18953;45.930;13.640;2024-02-28T14:50:58;7;7;
32503;PMS5003;18953;45.930;13.640;2024-02-28T14:56:14;8;8;
32503;PMS5003;18953;45.930;13.640;2024-02-28T15:01:30;8;8;
32503;PMS5003;18953;45.930;13.640;2024-02-28T15:06:47;19;18;
32503;PMS5003;18953;45.930;13.640;2024-02-28T15:12:03;9;7;
32503;PMS5003;18953;45.930;13.640;2024-02-28T15:17:19;18;16;
32503;PMS5003;18953;45.930;13.640;2024-02-28T15:22:35;11;10;
32503;PMS5003;18953;45.930;13.640;2024-02-28T15:27:52;20;19;
32503;PMS5003;18953;45.930;13.640;2024-02-28T15:33:08;18;17;
32503;PMS5003;18953;45.930;13.640;2024-02-28T15:38:25;20;19;
32503;PMS5003;18953;45.930;13.640;2024-02-28T15:43:41;49;40;
32503;PMS5003;18953;45.930;13.640;2024-02-28T15:48:57;55;44;
32503;PMS5003;18953;45.930;13.640;2024-02-28T15:54:14;68;52;
32503;PMS5003;18953;45.930;13.640;2024-02-28T15:59:30;60;48;
32503;PMS5003;18953;45.930;13.640;2024-02-28T16:04:46;47;38;
32503;PMS5003;18953;45.930;13.640;2024-02-28T16:10:04;41;35;
32503;PMS5003;18953;45.930;13.640;2024-02-28T16:15:20;25;24;
32503;PMS5003;18953;45.930;13.640;2024-02-28T16:20:36;44;33;
32503;PMS5003;18953;45.930;13.640;2024-02-28T16:25:52;27;25;
32503;PMS5003;18953;45.930;13.640;2024-02-28T16:31:09;27;26;
32503;PMS5003;18953;45.930;13.640;2024-02-28T16:36:25;38;32;
32503;PMS5003;18953;45.930;13.640;2024-02-28T16:41:42;33;29;
32503;PMS5003;18953;45.930;13.640;2024-02-28T16:46:58;39;33;
32503;PMS5003;18953;45.930;13.640;2024-02-28T16:52:14;26;24;
32503;PMS5003;18953;45.930;13.640;2024-02-28T16:57:30;22;20;
32503;PMS5003;18953;45.930;13.640;2024-02-28T17:02:47;44;36;
32503;PMS5003;18953;45.930;13.640;2024-02-28T17:08:03;32;29;
32503;PMS5003;18953;45.930;13.640;2024-02-28T17:13:20;21;18;
32503;PMS5003;18953;45.930;13.640;2024-02-28T17:18:36;14;10;
32503;PMS5003;18953;45.930;13.640;2024-02-28T17:23:52;11;9;
32503;PMS5003;18953;45.930;13.640;2024-02-28T17:29:08;9;9;
32503;PMS5003;18953;45.930;13.640;2024-02-28T17:34:25;12;9;
32503;PMS5003;18953;45.930;13.640;2024-02-28T17:39:41;20;18;
32503;PMS5003;18953;45.930;13.640;2024-02-28T17:44:57;24;20;
32503;PMS5003;18953;45.930;13.640;2024-02-28T17:50:14;23;21;
32503;PMS5003;18953;45.930;13.640;2024-02-28T17:55:30;23;22;
32503;PMS5003;18953;45.930;13.640;2024-02-28T18:00:46;54;43;
32503;PMS5003;18953;45.930;13.640;2024-02-28T18:06:04;63;50;
32503;PMS5003;18953;45.930;13.640;2024-02-28T18:11:23;66;51;
32503;PMS5003;18953;45.930;13.640;2024-02-28T18:16:36;56;46;
32503;PMS5003;18953;45.930;13.640;2024-02-28T18:21:53;55;45;
32503;PMS5003;18953;45.930;13.640;2024-02-28T18:27:10;46;37;
32503;PMS5003;18953;45.930;13.640;2024-02-28T18:32:26;35;32;
32503;PMS5003;18953;45.930;13.640;2024-02-28T18:37:42;50;39;
32503;PMS5003;18953;45.930;13.640;2024-02-28T18:42:59;36;33;
32503;PMS5003;18953;45.930;13.640;2024-02-28T18:48:15;42;34;
32503;PMS5003;18953;45.930;13.640;2024-02-28T18:53:32;28;27;
32503;PMS5003;18953;45.930;13.640;2024-02-28T18:58:48;28;26;
32503;PMS5003;18953;45.930;13.640;2024-02-28T19:04:05;19;18;
32503;PMS5003;18953;45.930;13.640;2024-02-28T19:09:21;33;28;
32503;PMS5003;18953;45.930;13.640;2024-02-28T19:14:38;48;38;
32503;PMS5003;18953;45.930;13.640;2024-02-28T19:19:54;27;26;
32503;PMS5003;18953;45.930;13.640;2024-02-28T19:25:10;18;18;
32503;PMS5003;18953;45.930;13.640;2024-02-28T19:30:27;44;38;
32503;PMS5003;18953;45.930;13.640;2024-02-28T19:35:44;60;47;
32503;PMS5003;18953;45.930;13.640;2024-02-28T19:41:00;48;40;
32503;PMS5003;18953;45.930;13.640;2024-02-28T19:46:17;47;40;
32503;PMS5003;18953;45.930;13.640;2024-02-28T19:51:34;41;36;
32503;PMS5003;18953;45.930;13.640;2024-02-28T19:56:51;36;32;
32503;PMS5003;18953;45.930;13.640;2024-02-28T20:02:07;48;37;
32503;PMS5003;18953;45.930;13.640;2024-02-28T20:07:23;34;32;
32503;PMS5003;18953;45.930;13.640;2024-02-28T20:12:39;36;30;
32503;PMS5003;18953;45.930;13.640;2024-02-28T20:17:56;44;37;
32503;PMS5003;18953;45.930;13.640;2024-02-28T20:23:12;58;47;
32503;PMS5003;18953;45.930;13.640;2024-02-28T20:28:29;60;47;
32503;PMS5003;18953;45.930;13.640;2024-02-28T20:33:45;55;44;
32503;PMS5003;18953;45.930;13.640;2024-02-28T20:39:01;44;38;
32503;PMS5003;18953;45.930;13.640;2024-02-28T20:44:18;42;37;
32503;PMS5003;18953;45.930;13.640;2024-02-28T20:49:34;41;35;
32503;PMS5003;18953;45.930;13.640;2024-02-28T20:54:50;39;36;
32503;PMS5003;18953;45.930;13.640;2024-02-28T21:00:07;33;31;
32503;PMS5003;18953;45.930;13.640;2024-02-28T21:05:24;39;33;
32503;PMS5003;18953;45.930;13.640;2024-02-28T21:10:40;28;26;
32503;PMS5003;18953;45.930;13.640;2024-02-28T21:15:56;45;38;
32503;PMS5003;18953;45.930;13.640;2024-02-28T21:21:13;39;35;
32503;PMS5003;18953;45.930;13.640;2024-02-28T21:26:29;45;39;
32503;PMS5003;18953;45.930;13.640;2024-02-28T21:31:45;30;27;
32503;PMS5003;18953;45.930;13.640;2024-02-28T21:37:02;43;35;
32503;PMS5003;18953;45.930;13.640;2024-02-28T21:42:19;40;35;
32503;PMS5003;18953;45.930;13.640;2024-02-28T21:47:35;29;26;
32503;PMS5003;18953;45.930;13.640;2024-02-28T21:52:51;24;21;
32503;PMS5003;18953;45.930;13.640;2024-02-28T21:58:08;23;22;
32503;PMS5003;18953;45.930;13.640;2024-02-28T22:03:24;24;24;
32503;PMS5003;18953;45.930;13.640;2024-02-28T22:08:40;25;23;
32503;PMS5003;18953;45.930;13.640;2024-02-28T22:13:56;19;17;
32503;PMS5003;18953;45.930;13.640;2024-02-28T22:19:13;21;19;
32503;PMS5003;18953;45.930;13.640;2024-02-28T22:24:29;26;22;
32503;PMS5003;18953;45.930;13.640;2024-02-28T22:29:46;19;18;
32503;PMS5003;18953;45.930;13.640;2024-02-28T22:35:02;21;16;
32503;PMS5003;18953;45.930;13.640;2024-02-28T22:40:18;22;20;
32503;PMS5003;18953;45.930;13.640;2024-02-28T22:45:35;23;20;
32503;PMS5003;18953;45.930;13.640;2024-02-28T22:50:51;30;28;
32503;PMS5003;18953;45.930;13.640;2024-02-28T22:56:08;26;25;
32503;PMS5003;18953;45.930;13.640;2024-02-28T23:01:24;17;15;
32503;PMS5003;18953;45.930;13.640;2024-02-28T23:06:40;16;15;
32503;PMS5003;18953;45.930;13.640;2024-02-28T23:11:57;24;18;
32503;PMS5003;18953;45.930;13.640;2024-02-28T23:17:13;22;21;
32503;PMS5003;18953;45.930;13.640;2024-02-28T23:22:29;28;26;
32503;PMS5003;18953;45.930;13.640;2024-02-28T23:27:46;15;14;
32503;PMS5003;18953;45.930;13.640;2024-02-28T23:33:02;20;18;
32503;PMS5003;18953;45.930;13.640;2024-02-28T23:38:18;25;20;
32503;PMS5003;18953;45.930;13.640;2024-02-28T23:43:35;19;18;
32503;PMS5003;18953;45.930;13.640;2024-02-28T23:48:51;13;12;
32503;PMS5003;18953;45.930;13.640;2024-02-28T23:54:07;14;11;
32503;PMS5003;18953;45.930;13.640;2024-02-28T23:59:24;12;11;
